createdAt,value
2022-08-05T00:00:50.818Z,8.98
2022-08-05T00:03:52.437Z,10.35
2022-08-05T00:06:54.615Z,7.72
2022-08-05T00:09:57.412Z,8.88
2022-08-05T00:13:01.259Z,12.40
2022-08-05T00:16:05.699Z,9.32
2022-08-05T00:19:10.411Z,8.30
2022-08-05T00:22:12.053Z,9.65
2022-08-05T00:25:13.616Z,9.48
2022-08-05T00:28:21.130Z,7.03
2022-08-05T00:31:52.910Z,8.15
2022-08-05T00:35:05.143Z,12.93
2022-08-05T00:38:09.464Z,11.98
2022-08-05T00:41:11.795Z,8.15
2022-08-05T00:44:13.865Z,9.85
2022-08-05T00:47:16.406Z,9.43
2022-08-05T00:50:18.147Z,7.38
2022-08-05T00:54:00.867Z,10.25
2022-08-05T00:56:51.272Z,13.98
2022-08-05T00:59:53.663Z,6.88
2022-08-05T01:02:56.209Z,12.02
2022-08-05T01:05:57.925Z,12.00
2022-08-05T01:09:00.518Z,15.25
2022-08-05T01:12:17.982Z,14.63
2022-08-05T01:15:36.249Z,10.48
2022-08-05T01:18:43.140Z,11.55
2022-08-05T01:22:10.936Z,13.30
2022-08-05T01:25:40.739Z,12.63
2022-08-05T01:28:56.596Z,10.77
2022-08-05T01:32:02.570Z,12.27
2022-08-05T01:35:51.722Z,11.32
2022-08-05T01:38:41.744Z,12.48
2022-08-05T01:41:46.284Z,15.90
2022-08-05T01:44:54.262Z,13.05
2022-08-05T01:47:59.926Z,14.05
2022-08-05T01:51:11.976Z,18.02
2022-08-05T01:54:16.044Z,18.58
2022-08-05T01:58:10.983Z,10.05
2022-08-05T02:00:51.503Z,17.48
2022-08-05T02:03:55.505Z,14.80
2022-08-05T02:06:59.773Z,16.13
2022-08-05T02:10:08.003Z,10.88
2022-08-05T02:13:18.060Z,15.35
2022-08-05T02:16:23.710Z,10.82
2022-08-05T02:19:28.326Z,26.80
2022-08-05T02:23:02.809Z,13.20
2022-08-05T02:26:09.807Z,15.25
2022-08-05T02:29:24.172Z,9.80
2022-08-05T02:32:31.505Z,10.88
2022-08-05T02:35:37.666Z,14.40
2022-08-05T02:38:41.569Z,12.77
2022-08-05T02:42:00.475Z,10.55
2022-08-05T02:45:04.447Z,18.85
2022-08-05T02:48:12.523Z,11.90
2022-08-05T02:51:16.961Z,17.02
2022-08-05T02:54:36.393Z,17.85
2022-08-05T03:01:02.457Z,14.23
2022-08-05T03:04:11.843Z,14.55
2022-08-05T03:07:24.704Z,16.02
2022-08-05T03:10:35.978Z,14.48
2022-08-05T03:13:52.267Z,21.13
2022-08-05T03:17:02.145Z,18.98
2022-08-05T03:20:10.171Z,25.92
2022-08-05T03:23:12.915Z,18.63
2022-08-05T03:26:30.955Z,21.85
2022-08-05T03:29:44.855Z,19.30
2022-08-05T03:32:56.655Z,17.27
2022-08-05T03:35:58.989Z,17.80
2022-08-05T03:39:07.695Z,18.13
2022-08-05T03:42:09.573Z,15.80
2022-08-05T03:45:21.499Z,15.35
2022-08-05T03:48:24.715Z,15.10
2022-08-05T03:52:50.258Z,17.30
2022-08-05T03:56:05.885Z,17.65
2022-08-05T03:58:33.264Z,19.33
2022-08-05T04:01:39.624Z,15.90
2022-08-05T04:04:42.684Z,18.00
2022-08-05T04:07:57.442Z,19.08
2022-08-05T04:11:01.739Z,15.98
2022-08-05T04:14:04.530Z,21.58
2022-08-05T04:17:08.352Z,22.25
2022-08-05T04:20:21.644Z,26.38
2022-08-05T04:24:05.200Z,25.85
2022-08-05T04:26:49.024Z,27.20
2022-08-05T04:29:50.607Z,31.25
2022-08-05T04:32:52.527Z,34.53
2022-08-05T04:36:15.760Z,38.72
2022-08-05T04:39:16.059Z,31.23
2022-08-05T04:42:17.695Z,37.67
2022-08-05T04:45:47.884Z,35.05
2022-08-05T04:48:48.451Z,30.20
2022-08-05T04:52:00.269Z,29.05
2022-08-05T04:55:13.761Z,27.90
2022-08-05T04:58:17.694Z,29.73
2022-08-05T05:02:08.196Z,29.92
2022-08-05T05:04:49.896Z,30.52
2022-08-05T05:07:56.490Z,32.40
2022-08-05T05:11:02.861Z,45.65
2022-08-05T05:14:04.530Z,42.42
2022-08-05T05:17:10.231Z,45.08
2022-08-05T05:20:13.119Z,54.63
2022-08-05T05:23:19.841Z,51.00
2022-08-05T05:26:28.665Z,44.05
2022-08-05T05:30:03.454Z,47.42
2022-08-05T05:32:56.362Z,56.13
2022-08-05T05:35:58.027Z,54.45
2022-08-05T05:39:03.838Z,58.53
2022-08-05T05:42:06.155Z,46.70
2022-08-05T05:45:09.231Z,53.00
2022-08-05T05:48:10.884Z,57.85
2022-08-05T05:51:22.847Z,50.88
2022-08-05T05:54:49.771Z,53.88
2022-08-05T05:57:52.855Z,59.33
2022-08-05T06:00:54.820Z,46.28
2022-08-05T06:04:01.544Z,43.83
2022-08-05T06:07:05.327Z,39.25
2022-08-05T06:10:10.467Z,42.63
2022-08-05T06:13:12.308Z,60.25
2022-08-05T06:16:30.697Z,47.72
2022-08-05T06:19:35.677Z,52.00
2022-08-05T06:22:37.495Z,53.92
2022-08-05T06:26:13.802Z,48.65
2022-08-05T06:29:06.929Z,48.40
2022-08-05T06:32:29.143Z,53.05
2022-08-05T06:36:08.209Z,49.00
2022-08-05T06:38:54.607Z,41.58
2022-08-05T06:42:04.113Z,53.17
2022-08-05T06:45:08.620Z,39.17
2022-08-05T06:48:44.248Z,47.42
2022-08-05T06:51:32.547Z,43.17
2022-08-05T06:54:34.148Z,37.15
2022-08-05T06:57:57.372Z,33.70
2022-08-05T07:01:00.213Z,24.50
2022-08-05T07:04:02.447Z,30.85
2022-08-05T07:07:06.250Z,25.90
2022-08-05T07:10:10.504Z,35.63
2022-08-05T07:13:57.510Z,26.00
2022-08-05T07:17:59.534Z,28.88
2022-08-05T07:20:38.848Z,30.85
2022-08-05T07:23:49.848Z,30.10
2022-08-05T07:26:54.122Z,22.63
2022-08-05T07:30:22.784Z,22.02
2022-08-05T07:33:21.414Z,19.05
2022-08-05T07:36:39.010Z,24.30
2022-08-05T07:40:25.973Z,22.50
2022-08-05T07:43:07.371Z,22.75
2022-08-05T07:46:24.773Z,22.40
2022-08-05T07:49:27.442Z,21.42
2022-08-05T07:52:29.539Z,19.73
2022-08-05T07:56:05.627Z,20.90
2022-08-05T07:58:58.996Z,21.17
2022-08-05T08:02:02.270Z,15.35
2022-08-05T08:05:05.207Z,19.45
2022-08-05T08:08:07.014Z,16.35
2022-08-05T08:11:16.038Z,19.40
2022-08-05T08:14:18.939Z,17.50
2022-08-05T08:17:21.300Z,23.75
2022-08-05T08:20:59.728Z,25.83
2022-08-05T08:24:03.357Z,18.02
2022-08-05T08:27:06.879Z,20.20
2022-08-05T08:30:27.676Z,16.70
2022-08-05T08:33:38.040Z,19.55
2022-08-05T08:36:47.603Z,16.27
2022-08-05T08:39:54.303Z,21.13
2022-08-05T08:42:56.651Z,23.77
2022-08-05T08:46:01.479Z,17.80
2022-08-05T08:50:05.937Z,19.27
2022-08-05T08:52:30.692Z,24.67
2022-08-05T08:56:04.312Z,17.63
2022-08-05T08:58:59.142Z,19.50
2022-08-05T09:02:06.103Z,16.02
2022-08-05T09:05:16.537Z,20.98
2022-08-05T09:08:19.684Z,18.20
2022-08-05T09:11:52.940Z,15.68
2022-08-05T09:14:57.859Z,20.83
2022-08-05T09:18:02.794Z,21.30
2022-08-05T09:21:20.439Z,24.40
2022-08-05T09:24:22.980Z,15.82
2022-08-05T09:28:05.812Z,21.67
2022-08-05T09:31:18.246Z,18.40
2022-08-05T09:34:26.135Z,26.02
2022-08-05T09:38:12.672Z,17.80
2022-08-05T09:40:52.585Z,22.02
2022-08-05T09:43:55.242Z,18.38
2022-08-05T09:47:10.226Z,13.90
2022-08-05T09:50:18.043Z,14.88
2022-08-05T09:53:53.711Z,14.13
2022-08-05T09:57:01.791Z,15.55
2022-08-05T10:00:20.190Z,16.48
2022-08-05T10:03:56.599Z,15.45
2022-08-05T10:06:59.658Z,17.20
2022-08-05T10:10:14.885Z,16.13
2022-08-05T10:13:45.551Z,14.05
2022-08-05T10:16:52.836Z,14.25
2022-08-05T10:20:03.778Z,21.15
2022-08-05T10:23:33.890Z,16.00
2022-08-05T10:26:51.845Z,14.05
2022-08-05T10:30:07.194Z,16.38
2022-08-05T10:33:15.772Z,11.77
2022-08-05T10:36:17.447Z,13.60
2022-08-05T10:39:59.442Z,13.25
2022-08-05T10:42:56.059Z,9.65
2022-08-05T10:46:06.254Z,16.35
2022-08-05T10:49:10.521Z,10.43
2022-08-05T10:52:49.387Z,8.43
2022-08-05T10:56:25.494Z,9.82
2022-08-05T11:00:03.257Z,13.80
2022-08-05T11:03:23.857Z,8.60
2022-08-05T11:06:31.204Z,9.25
2022-08-05T11:09:46.305Z,11.25
2022-08-05T11:12:50.860Z,8.73
2022-08-05T11:16:23.374Z,11.30
2022-08-05T11:20:10.111Z,10.40
2022-08-05T11:24:02.248Z,9.48
2022-08-05T11:27:10.773Z,9.73
2022-08-05T11:30:13.782Z,10.02
2022-08-05T11:33:43.973Z,17.88
2022-08-05T11:36:53.009Z,12.15
2022-08-05T11:40:02.815Z,13.43
2022-08-05T11:43:05.404Z,13.20
2022-08-05T11:46:14.948Z,8.95
2022-08-05T11:49:20.222Z,11.82
2022-08-05T11:52:29.259Z,13.38
2022-08-05T11:55:32.140Z,10.63
2022-08-05T11:58:40.118Z,10.65
2022-08-05T12:01:53.859Z,11.88
2022-08-05T12:04:59.568Z,6.38
2022-08-05T12:08:10.500Z,9.27
2022-08-05T12:11:21.797Z,7.63
2022-08-05T12:14:25.296Z,6.55
2022-08-05T12:18:10.030Z,4.78
2022-08-05T12:20:50.936Z,5.38
2022-08-05T12:24:04.810Z,9.13
2022-08-05T12:27:09.535Z,7.00
2022-08-05T12:30:15.367Z,7.63
2022-08-05T12:33:27.929Z,9.43
2022-08-05T12:36:39.844Z,6.30
2022-08-05T12:39:42.934Z,7.97
2022-08-05T12:42:45.967Z,6.97
2022-08-05T12:45:55.383Z,11.70
2022-08-05T12:49:13.193Z,9.48
2022-08-05T12:52:23.802Z,6.90
2022-08-05T12:55:32.508Z,7.32
2022-08-05T12:58:52.626Z,8.43
2022-08-05T13:02:07.382Z,10.25
2022-08-05T13:05:12.749Z,8.02
2022-08-05T13:08:18.348Z,7.43
2022-08-05T13:11:47.017Z,5.88
2022-08-05T13:15:05.038Z,8.00
2022-08-05T13:18:08.430Z,8.77
2022-08-05T13:21:10.099Z,6.75
2022-08-05T13:24:14.183Z,7.38
2022-08-05T13:27:35.600Z,10.13
2022-08-05T13:30:40.198Z,4.78
2022-08-05T13:34:23.515Z,7.93
2022-08-05T13:37:03.852Z,5.65
2022-08-05T13:40:16.336Z,6.53
2022-08-05T13:43:45.475Z,5.40
2022-08-05T13:47:04.956Z,3.90
2022-08-05T13:50:16.265Z,8.52
2022-08-05T13:53:18.322Z,6.32
2022-08-05T13:56:20.403Z,7.55
2022-08-05T13:59:24.429Z,5.25
2022-08-05T14:02:29.933Z,5.85
2022-08-05T14:06:24.406Z,7.65
2022-08-05T14:08:54.572Z,3.17
2022-08-05T14:12:04.147Z,5.28
2022-08-05T14:16:08.733Z,7.07
2022-08-05T14:18:39.915Z,3.40
2022-08-05T14:22:10.278Z,6.13
2022-08-05T14:25:06.316Z,5.63
2022-08-05T14:28:26.239Z,5.75
2022-08-05T14:32:03.227Z,7.38
2022-08-05T14:34:50.813Z,5.38
2022-08-05T14:37:55.400Z,4.65
2022-08-05T14:40:57.393Z,5.13
2022-08-05T14:44:09.702Z,3.67
2022-08-05T14:48:03.626Z,10.63
2022-08-05T14:50:42.495Z,3.42
2022-08-05T14:53:44.992Z,2.53
2022-08-05T14:56:47.192Z,2.05
2022-08-05T14:59:48.894Z,5.55
2022-08-05T15:02:50.835Z,4.72
2022-08-05T15:06:07.297Z,4.88
2022-08-05T15:09:14.359Z,1.83
2022-08-05T15:12:17.302Z,5.50
2022-08-05T15:15:54.960Z,3.40
2022-08-05T15:18:40.716Z,2.85
2022-08-05T15:21:42.956Z,3.97
2022-08-05T15:24:44.699Z,5.97
2022-08-05T15:27:52.126Z,4.30
2022-08-05T15:30:54.750Z,1.98
2022-08-05T15:34:04.969Z,2.90
2022-08-05T15:38:08.534Z,5.80
2022-08-05T15:40:39.872Z,4.05
2022-08-05T15:44:01.910Z,3.85
2022-08-05T15:47:06.096Z,3.95
2022-08-05T15:50:08.717Z,6.72
2022-08-05T15:53:17.182Z,3.72
2022-08-05T15:56:22.115Z,4.05
2022-08-05T15:59:24.522Z,5.90
2022-08-05T16:02:26.232Z,5.20
2022-08-05T16:05:30.406Z,3.40
2022-08-05T16:08:32.183Z,5.55
2022-08-05T16:11:42.521Z,4.45
2022-08-05T16:14:45.205Z,6.47
2022-08-05T16:17:58.023Z,2.35
2022-08-05T16:21:04.551Z,1.55
2022-08-05T16:24:07.558Z,4.70
2022-08-05T16:27:15.987Z,4.72
2022-08-05T16:30:23.365Z,2.20
2022-08-05T16:33:41.411Z,4.40
2022-08-05T16:36:43.576Z,3.45
2022-08-05T16:40:04.666Z,3.30
2022-08-05T16:43:06.946Z,1.38
2022-08-05T16:46:23.606Z,3.47
2022-08-05T16:49:26.451Z,1.90
2022-08-05T16:52:33.525Z,4.07
2022-08-05T16:55:46.864Z,7.30
2022-08-05T16:58:49.200Z,3.42
2022-08-05T17:01:54.541Z,3.80
2022-08-05T17:04:57.602Z,2.55
2022-08-05T17:07:59.192Z,9.60
2022-08-05T17:11:01.689Z,2.13
2022-08-05T17:14:05.800Z,2.85
2022-08-05T17:17:14.643Z,3.25
2022-08-05T17:20:17.035Z,3.08
2022-08-05T17:24:03.636Z,7.53
2022-08-05T17:26:40.940Z,3.15
2022-08-05T17:29:42.812Z,2.22
2022-08-05T17:32:44.817Z,2.63
2022-08-05T17:36:08.682Z,6.90
2022-08-05T17:39:24.272Z,1.92
2022-08-05T17:42:32.980Z,2.60
2022-08-05T17:45:38.502Z,3.10
2022-08-05T17:48:43.214Z,2.25
2022-08-05T17:51:47.225Z,3.72
2022-08-05T17:54:53.085Z,3.38
2022-08-05T17:57:56.228Z,3.80
2022-08-05T18:00:58.827Z,5.53
2022-08-05T18:04:04.793Z,3.03
2022-08-05T18:07:12.198Z,3.47
2022-08-05T18:10:21.095Z,6.00
2022-08-05T18:13:23.092Z,3.10
2022-08-05T18:16:27.551Z,2.53
2022-08-05T18:19:30.067Z,6.25
2022-08-05T18:22:36.239Z,6.63
2022-08-05T18:25:48.133Z,2.22
2022-08-05T18:29:00.212Z,4.07
2022-08-05T18:32:02.931Z,4.78
2022-08-05T18:35:05.394Z,2.63
2022-08-05T18:38:07.666Z,4.15
2022-08-05T18:41:57.640Z,3.30
2022-08-05T18:44:34.865Z,4.47
2022-08-05T18:47:37.988Z,3.90
2022-08-05T18:51:01.682Z,3.15
2022-08-05T18:54:20.240Z,4.38
2022-08-05T18:57:23.929Z,5.28
2022-08-05T19:00:29.193Z,2.60
2022-08-05T19:03:52.743Z,5.97
2022-08-05T19:06:53.637Z,3.45
2022-08-05T19:09:56.286Z,5.95
2022-08-05T19:12:58.085Z,3.00
2022-08-05T19:16:03.521Z,3.92
2022-08-05T19:19:05.744Z,2.22
2022-08-05T19:22:07.448Z,3.33
2022-08-05T19:25:10.972Z,2.65
2022-08-05T19:28:32.781Z,3.20
2022-08-05T19:31:34.820Z,2.17
2022-08-05T19:34:54.901Z,4.55
2022-08-05T19:38:06.363Z,3.95
2022-08-05T19:41:10.580Z,4.00
2022-08-05T19:44:13.263Z,6.68
2022-08-05T19:47:21.881Z,3.65
2022-08-05T19:50:28.700Z,5.47
2022-08-05T19:54:04.002Z,3.97
2022-08-05T19:56:54.749Z,3.78
2022-08-05T20:00:01.739Z,2.50
2022-08-05T20:03:09.133Z,4.70
2022-08-05T20:06:11.801Z,8.65
2022-08-05T20:09:17.940Z,7.15
2022-08-05T20:12:19.855Z,3.75
2022-08-05T20:15:51.760Z,4.53
2022-08-05T20:18:45.007Z,3.47
2022-08-05T20:21:46.796Z,4.38
2022-08-05T20:24:48.650Z,5.50
2022-08-05T20:27:50.673Z,6.63
2022-08-05T20:30:52.426Z,8.40
2022-08-05T20:33:54.562Z,4.28
2022-08-05T20:36:57.593Z,4.18
2022-08-05T20:40:00.385Z,8.23
2022-08-05T20:43:05.145Z,3.17
2022-08-05T20:46:07.951Z,6.00
2022-08-05T20:49:10.594Z,4.22
2022-08-05T20:52:18.910Z,3.78
2022-08-05T20:55:56.551Z,3.22
2022-08-05T20:58:45.500Z,3.38
2022-08-05T21:01:49.626Z,4.78
2022-08-05T21:04:59.189Z,1.63
2022-08-05T21:08:05.510Z,8.50
2022-08-05T21:12:06.577Z,3.92
2022-08-05T21:14:37.335Z,3.65
2022-08-05T21:17:40.504Z,4.45
2022-08-05T21:20:46.601Z,8.40
2022-08-05T21:23:50.407Z,3.55
2022-08-05T21:26:58.792Z,4.50
2022-08-05T21:30:02.145Z,3.95
2022-08-05T21:33:10.877Z,7.50
2022-08-05T21:36:42.324Z,4.40
2022-08-05T21:39:52.284Z,7.68
2022-08-05T21:42:59.211Z,3.58
2022-08-05T21:46:04.947Z,8.95
2022-08-05T21:49:48.128Z,2.83
2022-08-05T21:52:37.684Z,3.35
2022-08-05T21:56:06.191Z,7.78
2022-08-05T21:59:24.072Z,5.95
2022-08-05T22:02:30.791Z,5.60
2022-08-05T22:05:49.263Z,7.65
2022-08-05T22:08:56.946Z,5.30
2022-08-05T22:12:10.568Z,3.85
2022-08-05T22:15:16.401Z,7.65
2022-08-05T22:18:28.736Z,4.00
2022-08-05T22:21:32.023Z,6.18
2022-08-05T22:24:53.681Z,8.38
2022-08-05T22:28:08.176Z,3.97
2022-08-05T22:31:13.148Z,4.38
2022-08-05T22:34:25.419Z,5.90
2022-08-05T22:37:58.193Z,5.43
2022-08-05T22:40:55.224Z,10.15
2022-08-05T22:43:59.232Z,7.40
2022-08-05T22:47:01.209Z,5.88
2022-08-05T22:50:20.522Z,9.40
2022-08-05T22:53:25.498Z,4.32
2022-08-05T22:56:40.026Z,3.03
2022-08-05T22:59:43.735Z,3.72
2022-08-05T23:02:48.001Z,5.43
2022-08-05T23:05:50.220Z,3.00
2022-08-05T23:08:52.289Z,10.77
2022-08-05T23:11:53.984Z,4.55
2022-08-05T23:14:55.588Z,3.10
2022-08-05T23:18:01.671Z,8.10
2022-08-05T23:21:04.315Z,4.63
2022-08-05T23:24:11.469Z,5.28
2022-08-05T23:27:13.540Z,6.45
2022-08-05T23:30:16.882Z,7.63
2022-08-05T23:33:25.641Z,4.72
2022-08-05T23:36:44.377Z,7.07
2022-08-05T23:39:54.335Z,5.35
2022-08-05T23:42:56.398Z,7.93
2022-08-05T23:45:58.013Z,3.88
2022-08-05T23:49:02.157Z,5.60
2022-08-05T23:52:27.795Z,4.80
2022-08-05T23:55:31.052Z,10.73
2022-08-05T23:58:32.997Z,6.30
